createdAt,value
2019-06-15T00:03:11.602Z,99706.36
2019-06-15T00:07:16.595Z,99714.15
2019-06-15T00:11:20.895Z,99702.69
2019-06-15T00:15:25.244Z,99695.75
2019-06-15T00:19:29.543Z,99689.77
2019-06-15T00:23:33.899Z,99683.80
2019-06-15T00:27:38.295Z,99682.80
2019-06-15T00:31:42.649Z,99673.64
2019-06-15T00:35:47.120Z,99667.39
2019-06-15T00:39:53.225Z,99661.32
2019-06-15T00:43:57.561Z,99651.30
2019-06-15T00:48:02.720Z,99652.91
2019-06-15T00:52:07.011Z,99662.16
2019-06-15T00:56:11.591Z,99654.02
2019-06-15T01:00:16.299Z,99650.37
2019-06-15T01:04:21.119Z,99642.27
2019-06-15T01:08:25.772Z,99632.03
2019-06-15T01:12:30.325Z,99624.83
2019-06-15T01:16:34.602Z,99632.41
2019-06-15T01:20:39.214Z,99633.84
2019-06-15T01:24:43.561Z,99630.42
2019-06-15T01:28:47.889Z,99622.52
2019-06-15T01:32:52.226Z,99618.45
2019-06-15T01:36:56.556Z,99610.53
2019-06-15T01:41:00.914Z,99604.55
2019-06-15T01:45:05.640Z,99606.15
2019-06-15T01:49:09.980Z,99614.31
2019-06-15T01:53:14.322Z,99618.06
2019-06-15T01:57:18.617Z,99616.60
2019-06-15T02:01:22.964Z,99613.07
2019-06-15T02:05:27.236Z,99613.56
2019-06-15T02:09:31.559Z,99603.97
2019-06-15T02:13:35.851Z,99604.91
2019-06-15T02:17:40.388Z,99601.19
2019-06-15T02:21:44.756Z,99606.00
2019-06-15T02:25:49.267Z,99598.98
2019-06-15T02:29:53.580Z,99610.38
2019-06-15T02:33:58.126Z,99607.08
2019-06-15T02:38:02.494Z,99609.41
2019-06-15T02:42:06.828Z,99614.18
2019-06-15T02:46:11.138Z,99606.06
2019-06-15T02:50:15.847Z,99600.61
2019-06-15T02:54:20.207Z,99593.94
2019-06-15T02:58:24.507Z,99600.29
2019-06-15T03:02:28.834Z,99596.98
2019-06-15T03:06:33.155Z,99599.47
2019-06-15T03:10:37.621Z,99601.19
2019-06-15T03:14:42.220Z,99605.37
2019-06-15T03:18:46.736Z,99600.89
2019-06-15T03:22:51.049Z,99593.11
2019-06-15T03:26:55.380Z,99588.14
2019-06-15T03:30:59.743Z,99583.05
2019-06-15T03:35:04.155Z,99573.19
2019-06-15T03:39:09.515Z,99565.98
2019-06-15T03:43:13.813Z,99569.16
2019-06-15T03:47:18.397Z,99570.87
2019-06-15T03:51:22.725Z,99578.61
2019-06-15T03:55:27.567Z,99573.06
2019-06-15T03:59:31.881Z,99564.34
2019-06-15T04:03:36.222Z,99565.23
2019-06-15T04:07:40.557Z,99560.95
2019-06-15T04:11:44.867Z,99550.63
2019-06-15T04:15:49.221Z,99547.67
2019-06-15T04:19:53.781Z,99551.91
2019-06-15T04:23:59.549Z,99535.83
2019-06-15T04:28:04.087Z,99547.56
2019-06-15T04:32:08.418Z,99554.72
2019-06-15T04:36:12.745Z,99562.81
2019-06-15T04:40:18.107Z,99563.41
2019-06-15T04:44:22.745Z,99566.37
2019-06-15T04:48:27.055Z,99569.79
2019-06-15T04:52:31.569Z,99564.20
2019-06-15T04:56:47.820Z,99564.79
2019-06-15T05:00:41.942Z,99557.88
2019-06-15T05:04:46.275Z,99558.59
2019-06-15T05:08:50.568Z,99550.83
2019-06-15T05:12:54.959Z,99539.95
2019-06-15T05:16:59.696Z,99538.70
2019-06-15T05:21:04.007Z,99535.52
2019-06-15T05:25:08.335Z,99527.27
2019-06-15T05:29:12.659Z,99529.56
2019-06-15T05:33:17.216Z,99523.72
2019-06-15T05:37:21.540Z,99544.33
2019-06-15T05:41:25.955Z,99550.66
2019-06-15T05:45:30.317Z,99557.14
2019-06-15T05:49:34.659Z,99541.73
2019-06-15T05:53:39.161Z,99549.02
2019-06-15T05:57:43.491Z,99556.03
2019-06-15T06:01:48.292Z,99553.67
2019-06-15T06:05:53.226Z,99552.37
2019-06-15T06:09:57.563Z,99557.44
2019-06-15T06:14:02.083Z,99553.51
2019-06-15T06:18:06.382Z,99553.02
2019-06-15T06:22:10.719Z,99541.59
2019-06-15T06:26:15.209Z,99546.30
2019-06-15T06:30:20.794Z,99546.77
2019-06-15T06:34:25.564Z,99537.78
2019-06-15T06:38:29.892Z,99540.96
2019-06-15T06:42:34.620Z,99540.15
2019-06-15T06:46:39.017Z,99544.66
2019-06-15T06:50:44.168Z,99537.55
2019-06-15T06:54:48.491Z,99532.66
2019-06-15T06:58:53.235Z,99532.05
2019-06-15T07:02:57.578Z,99533.31
2019-06-15T07:07:02.200Z,99525.08
2019-06-15T07:11:06.516Z,99516.34
2019-06-15T07:15:11.069Z,99505.46
2019-06-15T07:19:15.398Z,99507.52
2019-06-15T07:23:19.709Z,99504.77
2019-06-15T07:27:24.134Z,99519.56
2019-06-15T07:31:28.434Z,99530.28
2019-06-15T07:35:32.960Z,99523.61
2019-06-15T07:39:37.312Z,99531.03
2019-06-15T07:43:41.758Z,99532.91
2019-06-15T07:47:46.069Z,99540.69
2019-06-15T07:51:50.383Z,99547.08
2019-06-15T07:55:54.697Z,99556.03
2019-06-15T07:59:59.030Z,99559.36
2019-06-15T08:04:03.358Z,99565.22
2019-06-15T08:08:08.098Z,99569.05
2019-06-15T08:12:12.554Z,99569.64
2019-06-15T08:16:16.878Z,99557.30
2019-06-15T08:20:25.174Z,99568.27
2019-06-15T08:24:29.539Z,99563.36
2019-06-15T08:28:40.191Z,99570.73
2019-06-15T08:32:40.075Z,99573.67
2019-06-15T08:36:44.415Z,99571.19
2019-06-15T08:40:48.734Z,99568.05
2019-06-15T08:44:53.040Z,99565.84
2019-06-15T08:48:57.371Z,99566.44
2019-06-15T08:53:01.710Z,99568.78
2019-06-15T08:57:06.278Z,99566.50
2019-06-15T09:01:10.587Z,99560.27
2019-06-15T09:05:15.136Z,99555.28
2019-06-15T09:09:19.998Z,99542.23
2019-06-15T09:13:24.303Z,99535.94
2019-06-15T09:17:28.665Z,99537.92
2019-06-15T09:21:33.181Z,99530.27
2019-06-15T09:25:37.584Z,99527.23
2019-06-15T09:29:42.172Z,99526.21
2019-06-15T09:33:46.484Z,99518.86
2019-06-15T09:37:50.834Z,99510.92
2019-06-15T09:41:55.177Z,99506.08
2019-06-15T09:45:59.719Z,99497.00
2019-06-15T09:50:04.476Z,99489.48
2019-06-15T09:54:08.977Z,99485.89
2019-06-15T09:58:13.267Z,99481.44
2019-06-15T10:02:17.987Z,99482.27
2019-06-15T10:06:22.306Z,99473.80
2019-06-15T10:10:26.605Z,99466.58
2019-06-15T10:14:31.174Z,99479.81
2019-06-15T10:18:38.659Z,99479.05
2019-06-15T10:22:41.559Z,99475.55
2019-06-15T10:26:46.369Z,99473.48
2019-06-15T10:30:50.707Z,99471.17
2019-06-15T10:34:55.047Z,99468.07
2019-06-15T10:38:59.625Z,99470.98
2019-06-15T10:43:03.969Z,99470.43
2019-06-15T10:47:08.495Z,99461.31
2019-06-15T10:51:12.822Z,99469.42
2019-06-15T10:55:17.389Z,99475.13
2019-06-15T10:59:21.676Z,99463.31
2019-06-15T11:03:26.026Z,99455.84
2019-06-15T11:07:30.352Z,99463.86
2019-06-15T11:11:34.692Z,99462.89
2019-06-15T11:15:40.668Z,99466.32
2019-06-15T11:19:44.991Z,99464.59
2019-06-15T11:23:49.615Z,99470.45
2019-06-15T11:27:53.910Z,99474.85
2019-06-15T11:31:58.430Z,99473.09
2019-06-15T11:36:02.735Z,99468.66
2019-06-15T11:40:07.451Z,99471.75
2019-06-15T11:44:11.789Z,99469.71
2019-06-15T11:48:16.086Z,99473.81
2019-06-15T11:52:20.426Z,99474.58
2019-06-15T11:56:24.909Z,99461.01
2019-06-15T12:00:32.124Z,99454.81
2019-06-15T12:04:36.688Z,99458.06
2019-06-15T12:08:41.490Z,99442.43
2019-06-15T12:12:45.818Z,99452.45
2019-06-15T12:16:50.396Z,99448.58
2019-06-15T12:20:54.712Z,99444.93
2019-06-15T12:24:59.265Z,99452.91
2019-06-15T12:29:03.591Z,99449.01
2019-06-15T12:33:08.000Z,99449.19
2019-06-15T12:37:12.575Z,99434.55
2019-06-15T12:41:17.337Z,99433.47
2019-06-15T12:45:21.973Z,99423.36
2019-06-15T12:49:26.350Z,99418.72
2019-06-15T12:53:31.319Z,99424.98
2019-06-15T12:57:35.656Z,99424.19
2019-06-15T13:01:40.058Z,99423.45
2019-06-15T13:05:44.443Z,99431.05
2019-06-15T13:09:48.974Z,99418.57
2019-06-15T13:13:53.316Z,99425.54
2019-06-15T13:17:57.704Z,99426.69
2019-06-15T13:22:05.596Z,99426.94
2019-06-15T13:26:08.134Z,99418.72
2019-06-15T13:30:19.409Z,99417.05
2019-06-15T13:34:24.294Z,99413.79
2019-06-15T13:38:28.829Z,99409.00
2019-06-15T13:42:33.380Z,99422.61
2019-06-15T13:46:37.764Z,99409.52
2019-06-15T13:50:42.118Z,99411.24
2019-06-15T13:54:46.711Z,99403.02
2019-06-15T13:58:51.033Z,99388.14
2019-06-15T14:02:55.663Z,99386.62
2019-06-15T14:07:00.837Z,99372.05
2019-06-15T14:11:05.178Z,99358.67
2019-06-15T14:15:09.634Z,99376.59
2019-06-15T14:19:14.266Z,99383.66
2019-06-15T14:23:19.206Z,99385.69
2019-06-15T14:27:23.469Z,99384.09
2019-06-15T14:31:27.807Z,99372.91
2019-06-15T14:35:32.149Z,99380.86
2019-06-15T14:39:36.496Z,99376.41
2019-06-15T14:43:40.909Z,99375.40
2019-06-15T14:47:45.244Z,99363.28
2019-06-15T14:51:51.064Z,99364.50
2019-06-15T14:55:56.540Z,99353.02
2019-06-15T15:00:04.982Z,99353.23
2019-06-15T15:04:07.017Z,99342.48
2019-06-15T15:08:11.887Z,99341.33
2019-06-15T15:12:16.248Z,99337.56
2019-06-15T15:16:20.828Z,99322.05
2019-06-15T15:20:26.392Z,99310.77
2019-06-15T15:24:33.422Z,99311.13
2019-06-15T15:28:39.578Z,99307.73
2019-06-15T15:32:46.655Z,99302.73
2019-06-15T15:36:50.605Z,99295.36
2019-06-15T15:40:56.108Z,99282.28
2019-06-15T15:45:00.896Z,99288.15
2019-06-15T15:49:07.040Z,99288.59
2019-06-15T15:53:11.617Z,99285.86
2019-06-15T15:57:17.222Z,99276.27
2019-06-15T16:01:21.907Z,99272.09
2019-06-15T16:05:26.572Z,99264.03
2019-06-15T16:09:31.095Z,99248.93
2019-06-15T16:13:35.446Z,99255.55
2019-06-15T16:17:39.968Z,99262.88
2019-06-15T16:21:46.828Z,99264.55
2019-06-15T16:25:50.591Z,99266.73
2019-06-15T16:29:56.490Z,99260.30
2019-06-15T16:34:00.987Z,99248.66
2019-06-15T16:38:06.824Z,99249.96
2019-06-15T16:42:11.432Z,99251.41
2019-06-15T16:46:17.260Z,99243.16
2019-06-15T16:50:21.848Z,99248.40
2019-06-15T16:54:27.047Z,99249.84
2019-06-15T16:58:31.546Z,99244.69
2019-06-15T17:02:36.864Z,99254.56
2019-06-15T17:06:41.246Z,99252.39
2019-06-15T17:10:45.877Z,99248.27
2019-06-15T17:14:50.184Z,99245.06
2019-06-15T17:18:56.251Z,99250.36
2019-06-15T17:23:00.793Z,99250.12
2019-06-15T17:27:06.105Z,99255.89
2019-06-15T17:31:10.657Z,99259.23
2019-06-15T17:35:16.949Z,99256.67
2019-06-15T17:39:20.966Z,99252.49
2019-06-15T17:43:26.887Z,99256.45
2019-06-15T17:47:31.797Z,99255.31
2019-06-15T17:51:36.787Z,99253.53
2019-06-15T17:55:41.363Z,99245.22
2019-06-15T17:59:47.031Z,99245.45
2019-06-15T18:03:54.622Z,99242.92
2019-06-15T18:08:00.878Z,99243.62
2019-06-15T18:12:06.414Z,99238.69
2019-06-15T18:16:10.218Z,99236.33
2019-06-15T18:20:16.193Z,99238.04
2019-06-15T18:24:20.553Z,99236.89
2019-06-15T18:28:26.532Z,99231.46
2019-06-15T18:32:31.028Z,99246.87
2019-06-15T18:36:36.570Z,99246.64
2019-06-15T18:40:41.343Z,99253.19
2019-06-15T18:44:47.918Z,99251.28
2019-06-15T18:48:52.417Z,99263.25
2019-06-15T18:52:56.768Z,99266.63
2019-06-15T18:57:01.106Z,99275.45
2019-06-15T19:01:06.937Z,99285.14
2019-06-15T19:05:11.757Z,99298.91
2019-06-15T19:09:16.402Z,99311.05
2019-06-15T19:13:20.755Z,99316.36
2019-06-15T19:17:25.251Z,99338.25
2019-06-15T19:21:29.571Z,99372.58
2019-06-15T19:25:36.371Z,99393.61
2019-06-15T19:29:40.373Z,99383.86
2019-06-15T19:33:46.876Z,99385.75
2019-06-15T19:37:51.074Z,99386.75
2019-06-15T19:41:56.283Z,99381.45
2019-06-15T19:46:01.132Z,99389.59
2019-06-15T19:50:06.560Z,99402.31
2019-06-15T19:54:12.476Z,99407.63
2019-06-15T19:58:16.866Z,99402.70
2019-06-15T20:02:21.187Z,99400.03
2019-06-15T20:06:26.035Z,99395.58
2019-06-15T20:10:30.455Z,99404.33
2019-06-15T20:14:36.742Z,99402.62
2019-06-15T20:18:41.247Z,99399.69
2019-06-15T20:22:46.788Z,99404.86
2019-06-15T20:26:51.322Z,99409.91
2019-06-15T20:30:57.046Z,99418.16
2019-06-15T20:35:16.255Z,99418.71
2019-06-15T20:39:08.941Z,99426.84
2019-06-15T20:43:13.247Z,99428.70
2019-06-15T20:47:17.791Z,99435.81
2019-06-15T20:51:22.954Z,99436.77
2019-06-15T20:55:31.588Z,99444.97
2019-06-15T20:59:38.702Z,99447.43
2019-06-15T21:03:43.600Z,99446.03
2019-06-15T21:07:47.910Z,99443.89
2019-06-15T21:11:52.219Z,99449.75
2019-06-15T21:15:56.996Z,99451.36
2019-06-15T21:20:01.377Z,99444.69
2019-06-15T21:24:06.402Z,99449.06
2019-06-15T21:28:11.274Z,99451.86
2019-06-15T21:32:15.588Z,99455.22
2019-06-15T21:36:19.932Z,99460.86
2019-06-15T21:40:27.067Z,99468.22
2019-06-15T21:44:30.365Z,99473.39
2019-06-15T21:48:36.423Z,99472.89
2019-06-15T21:52:40.948Z,99470.91
2019-06-15T21:56:45.306Z,99468.91
2019-06-15T22:01:01.453Z,99474.72
2019-06-15T22:05:07.182Z,99473.94
2019-06-15T22:09:13.352Z,99473.13
2019-06-15T22:13:17.755Z,99486.36
2019-06-15T22:17:22.317Z,99482.72
2019-06-15T22:21:28.068Z,99480.47
2019-06-15T22:25:32.634Z,99488.51
2019-06-15T22:29:36.950Z,99496.96
2019-06-15T22:33:41.251Z,99494.18
2019-06-15T22:37:46.768Z,99500.14
2019-06-15T22:41:51.513Z,99501.02
2019-06-15T22:45:56.349Z,99505.02
2019-06-15T22:50:00.751Z,99505.81
2019-06-15T22:54:05.054Z,99508.92
2019-06-15T22:58:09.542Z,99523.67
2019-06-15T23:02:13.855Z,99524.46
2019-06-15T23:06:33.526Z,99533.20
2019-06-15T23:10:25.240Z,99533.39
2019-06-15T23:14:29.541Z,99526.84
2019-06-15T23:18:33.895Z,99530.50
2019-06-15T23:22:38.216Z,99531.68
2019-06-15T23:26:42.531Z,99537.02
2019-06-15T23:30:47.390Z,99538.03
2019-06-15T23:34:51.770Z,99526.12
2019-06-15T23:38:57.043Z,99518.02
2019-06-15T23:43:01.441Z,99510.94
2019-06-15T23:47:06.200Z,99504.98
2019-06-15T23:51:10.518Z,99508.06
2019-06-15T23:55:14.951Z,99514.91
2019-06-15T23:59:19.265Z,99514.24
